Ventnor Heights, New Jersey
Current Conditions -  °F | °C
As of 7:26 AM on Monday 24 Nov 2014 (Local Time) from KACY Reporting Station
Haze Haze  
Wind Chill: 62°   Ceiling: 400
Heat Index: 62°   Visibility: 2.5mi
Dew Point: 61°   Wind: 15mph
Humidity: 96%   Direction: 190°S
Pressure: 29.74"   Gusts: 23mph
Location:  39.3406°N, 74.4859°W
Report Text: KACY 241226Z 19013G20KT 2 1/2SM BR OVC004 17/16 A2974 RMK AO2 RAB1159E11 P0000 T01670161
Loading
Personal Weather Stations






























Interactive Weather Map New forecast layout! Learn more

10-Day Weather Forecast

Advertisements
Track Severe Weather on mobile